sensor_id;sensor_type;location;lat;lon;timestamp;pressure;altitude;pressure_sealevel;temperature;humidity
81658;BME280;71057;51.436;6.768;2023-12-20T00:01:16;101168.16;;;7.24;100.00
81658;BME280;71057;51.436;6.768;2023-12-20T00:03:41;101174.09;;;7.19;100.00
81658;BME280;71057;51.436;6.768;2023-12-20T00:06:07;101172.84;;;7.15;100.00
81658;BME280;71057;51.436;6.768;2023-12-20T00:08:32;101170.06;;;7.02;100.00
81658;BME280;71057;51.436;6.768;2023-12-20T00:10:57;101179.28;;;6.93;100.00
81658;BME280;71057;51.436;6.768;2023-12-20T00:13:23;101181.97;;;6.93;100.00
81658;BME280;71057;51.436;6.768;2023-12-20T00:15:48;101182.47;;;6.81;100.00
81658;BME280;71057;51.436;6.768;2023-12-20T00:18:13;101185.53;;;6.78;100.00
81658;BME280;71057;51.436;6.768;2023-12-20T00:20:39;101200.38;;;6.74;100.00
81658;BME280;71057;51.436;6.768;2023-12-20T00:23:04;101186.28;;;6.72;100.00
81658;BME280;71057;51.436;6.768;2023-12-20T00:25:30;101187.31;;;6.71;100.00
81658;BME280;71057;51.436;6.768;2023-12-20T00:27:55;101195.75;;;6.68;100.00
81658;BME280;71057;51.436;6.768;2023-12-20T00:30:20;101195.75;;;6.68;100.00
81658;BME280;71057;51.436;6.768;2023-12-20T00:32:46;101207.38;;;6.75;100.00
81658;BME280;71057;51.436;6.768;2023-12-20T00:35:18;101199.53;;;6.74;100.00
81658;BME280;71057;51.436;6.768;2023-12-20T00:37:43;101208.03;;;6.77;100.00
81658;BME280;71057;51.436;6.768;2023-12-20T00:40:09;101197.69;;;6.74;100.00
81658;BME280;71057;51.436;6.768;2023-12-20T00:42:35;101192.56;;;6.79;100.00
81658;BME280;71057;51.436;6.768;2023-12-20T00:45:01;101209.03;;;6.76;100.00
81658;BME280;71057;51.436;6.768;2023-12-20T00:47:27;101219.16;;;6.74;100.00
81658;BME280;71057;51.436;6.768;2023-12-20T00:49:52;101210.69;;;6.77;100.00
81658;BME280;71057;51.436;6.768;2023-12-20T00:52:18;101221.16;;;6.72;100.00
81658;BME280;71057;51.436;6.768;2023-12-20T00:54:43;101219.69;;;6.70;100.00
81658;BME280;71057;51.436;6.768;2023-12-20T00:57:09;101214.34;;;6.70;100.00
81658;BME280;71057;51.436;6.768;2023-12-20T00:59:34;101210.25;;;6.74;100.00
81658;BME280;71057;51.436;6.768;2023-12-20T01:01:59;101207.59;;;6.74;100.00
81658;BME280;71057;51.436;6.768;2023-12-20T01:04:25;101211.72;;;6.76;100.00
81658;BME280;71057;51.436;6.768;2023-12-20T01:06:50;101217.91;;;6.77;100.00
81658;BME280;71057;51.436;6.768;2023-12-20T01:09:15;101214.41;;;6.76;100.00
81658;BME280;71057;51.436;6.768;2023-12-20T01:11:40;101227.19;;;6.74;100.00
81658;BME280;71057;51.436;6.768;2023-12-20T01:14:06;101227.19;;;6.74;100.00
81658;BME280;71057;51.436;6.768;2023-12-20T01:16:31;101225.53;;;6.73;100.00
81658;BME280;71057;51.436;6.768;2023-12-20T01:18:56;101231.78;;;6.80;100.00
81658;BME280;71057;51.436;6.768;2023-12-20T01:21:22;101223.47;;;6.75;100.00
81658;BME280;71057;51.436;6.768;2023-12-20T01:23:47;101227.56;;;6.71;100.00
81658;BME280;71057;51.436;6.768;2023-12-20T01:26:12;101239.50;;;6.69;100.00
81658;BME280;71057;51.436;6.768;2023-12-20T01:28:38;101244.66;;;6.70;100.00
81658;BME280;71057;51.436;6.768;2023-12-20T01:31:03;101237.00;;;6.67;100.00
81658;BME280;71057;51.436;6.768;2023-12-20T01:33:29;101228.34;;;6.65;100.00
81658;BME280;71057;51.436;6.768;2023-12-20T01:35:54;101236.09;;;6.60;100.00
81658;BME280;71057;51.436;6.768;2023-12-20T01:38:19;101237.50;;;6.56;100.00
81658;BME280;71057;51.436;6.768;2023-12-20T01:40:45;101241.53;;;6.45;100.00
81658;BME280;71057;51.436;6.768;2023-12-20T01:43:12;101242.47;;;6.38;100.00
81658;BME280;71057;51.436;6.768;2023-12-20T01:45:38;101237.38;;;6.28;100.00
81658;BME280;71057;51.436;6.768;2023-12-20T01:48:05;101227.59;;;6.20;100.00
81658;BME280;71057;51.436;6.768;2023-12-20T01:50:31;101225.84;;;6.13;100.00
81658;BME280;71057;51.436;6.768;2023-12-20T01:52:58;101227.69;;;6.12;100.00
81658;BME280;71057;51.436;6.768;2023-12-20T01:55:25;101218.56;;;6.07;100.00
81658;BME280;71057;51.436;6.768;2023-12-20T01:57:52;101227.16;;;6.02;100.00
81658;BME280;71057;51.436;6.768;2023-12-20T02:00:18;101230.47;;;6.04;100.00
81658;BME280;71057;51.436;6.768;2023-12-20T02:02:44;101236.47;;;6.06;100.00
81658;BME280;71057;51.436;6.768;2023-12-20T02:05:10;101242.03;;;6.05;100.00
81658;BME280;71057;51.436;6.768;2023-12-20T02:07:36;101237.50;;;6.05;100.00
81658;BME280;71057;51.436;6.768;2023-12-20T02:10:01;101227.16;;;6.02;100.00
81658;BME280;71057;51.436;6.768;2023-12-20T02:12:27;101224.22;;;5.97;100.00
81658;BME280;71057;51.436;6.768;2023-12-20T02:14:52;101220.44;;;5.91;100.00
81658;BME280;71057;51.436;6.768;2023-12-20T02:17:19;101235.66;;;5.91;100.00
81658;BME280;71057;51.436;6.768;2023-12-20T02:19:44;101230.94;;;5.93;100.00
81658;BME280;71057;51.436;6.768;2023-12-20T02:22:13;101239.34;;;5.90;100.00
81658;BME280;71057;51.436;6.768;2023-12-20T02:24:38;101235.72;;;5.83;100.00
81658;BME280;71057;51.436;6.768;2023-12-20T02:27:06;101235.44;;;5.78;100.00
81658;BME280;71057;51.436;6.768;2023-12-20T02:29:32;101233.78;;;5.77;100.00
81658;BME280;71057;51.436;6.768;2023-12-20T02:31:58;101234.16;;;5.73;100.00
81658;BME280;71057;51.436;6.768;2023-12-20T02:34:23;101233.59;;;5.63;100.00
81658;BME280;71057;51.436;6.768;2023-12-20T02:36:48;101237.66;;;5.59;100.00
81658;BME280;71057;51.436;6.768;2023-12-20T02:39:14;101232.19;;;5.53;100.00
81658;BME280;71057;51.436;6.768;2023-12-20T02:41:39;101248.53;;;5.43;100.00
81658;BME280;71057;51.436;6.768;2023-12-20T02:44:04;101241.22;;;5.37;100.00
81658;BME280;71057;51.436;6.768;2023-12-20T02:46:30;101238.91;;;5.34;100.00
81658;BME280;71057;51.436;6.768;2023-12-20T02:48:55;101232.72;;;5.33;100.00
81658;BME280;71057;51.436;6.768;2023-12-20T02:51:20;101231.91;;;5.33;100.00
81658;BME280;71057;51.436;6.768;2023-12-20T02:53:45;101222.84;;;5.34;100.00
81658;BME280;71057;51.436;6.768;2023-12-20T02:56:11;101230.56;;;5.29;100.00
81658;BME280;71057;51.436;6.768;2023-12-20T02:58:36;101239.72;;;5.34;100.00
81658;BME280;71057;51.436;6.768;2023-12-20T03:01:02;101247.94;;;5.33;100.00
81658;BME280;71057;51.436;6.768;2023-12-20T03:03:27;101253.50;;;5.31;100.00
81658;BME280;71057;51.436;6.768;2023-12-20T03:05:52;101255.69;;;5.28;100.00
81658;BME280;71057;51.436;6.768;2023-12-20T03:08:18;101241.47;;;5.27;100.00
81658;BME280;71057;51.436;6.768;2023-12-20T03:10:43;101242.94;;;5.30;100.00
81658;BME280;71057;51.436;6.768;2023-12-20T03:13:09;101248.13;;;5.31;100.00
81658;BME280;71057;51.436;6.768;2023-12-20T03:15:34;101249.59;;;5.34;100.00
81658;BME280;71057;51.436;6.768;2023-12-20T03:17:59;101242.59;;;5.33;100.00
81658;BME280;71057;51.436;6.768;2023-12-20T03:20:25;101238.91;;;5.34;100.00
81658;BME280;71057;51.436;6.768;2023-12-20T03:22:53;101247.47;;;5.29;100.00
81658;BME280;71057;51.436;6.768;2023-12-20T03:25:18;101242.59;;;5.33;100.00
81658;BME280;71057;51.436;6.768;2023-12-20T03:27:43;101239.91;;;5.33;100.00
81658;BME280;71057;51.436;6.768;2023-12-20T03:30:09;101233.38;;;5.35;100.00
81658;BME280;71057;51.436;6.768;2023-12-20T03:32:35;101219.34;;;5.33;100.00
81658;BME280;71057;51.436;6.768;2023-12-20T03:35:00;101222.66;;;5.35;100.00
81658;BME280;71057;51.436;6.768;2023-12-20T03:37:25;101217.13;;;5.37;100.00
81658;BME280;71057;51.436;6.768;2023-12-20T03:39:50;101227.72;;;5.30;100.00
81658;BME280;71057;51.436;6.768;2023-12-20T03:42:16;101218.22;;;5.28;100.00
81658;BME280;71057;51.436;6.768;2023-12-20T03:44:41;101217.94;;;5.23;100.00
81658;BME280;71057;51.436;6.768;2023-12-20T03:47:07;101221.97;;;5.19;100.00
81658;BME280;71057;51.436;6.768;2023-12-20T03:49:32;101229.03;;;5.11;100.00
81658;BME280;71057;51.436;6.768;2023-12-20T03:51:58;101220.69;;;5.14;100.00
81658;BME280;71057;51.436;6.768;2023-12-20T03:54:24;101231.06;;;5.09;100.00
81658;BME280;71057;51.436;6.768;2023-12-20T03:56:49;101218.06;;;5.06;100.00
81658;BME280;71057;51.436;6.768;2023-12-20T03:59:15;101222.41;;;5.07;100.00
81658;BME280;71057;51.436;6.768;2023-12-20T04:01:43;101224.56;;;5.12;100.00
81658;BME280;71057;51.436;6.768;2023-12-20T04:04:10;101227.38;;;5.10;100.00
81658;BME280;71057;51.436;6.768;2023-12-20T04:06:35;101197.81;;;5.12;100.00
81658;BME280;71057;51.436;6.768;2023-12-20T04:09:01;101209.59;;;5.18;100.00
81658;BME280;71057;51.436;6.768;2023-12-20T04:11:26;101193.38;;;5.19;100.00
81658;BME280;71057;51.436;6.768;2023-12-20T04:13:51;101199.91;;;5.16;100.00
81658;BME280;71057;51.436;6.768;2023-12-20T04:16:16;101207.31;;;5.14;100.00
81658;BME280;71057;51.436;6.768;2023-12-20T04:18:42;101216.34;;;5.13;100.00
81658;BME280;71057;51.436;6.768;2023-12-20T04:21:07;101205.38;;;5.23;100.00
81658;BME280;71057;51.436;6.768;2023-12-20T04:23:32;101221.91;;;5.27;100.00
81658;BME280;71057;51.436;6.768;2023-12-20T04:25:58;101213.59;;;5.22;100.00
81658;BME280;71057;51.436;6.768;2023-12-20T04:28:23;101216.81;;;5.17;100.00
81658;BME280;71057;51.436;6.768;2023-12-20T04:30:49;101222.16;;;5.17;100.00
81658;BME280;71057;51.436;6.768;2023-12-20T04:33:14;101218.59;;;5.25;100.00
81658;BME280;71057;51.436;6.768;2023-12-20T04:35:40;101226.72;;;5.31;100.00
81658;BME280;71057;51.436;6.768;2023-12-20T04:38:06;101233.25;;;5.29;100.00
81658;BME280;71057;51.436;6.768;2023-12-20T04:40:31;101224.22;;;5.30;100.00
81658;BME280;71057;51.436;6.768;2023-12-20T04:42:56;101241.28;;;5.29;100.00
81658;BME280;71057;51.436;6.768;2023-12-20T04:45:22;101218.59;;;5.25;100.00
81658;BME280;71057;51.436;6.768;2023-12-20T04:47:48;101213.03;;;5.26;100.00
81658;BME280;71057;51.436;6.768;2023-12-20T04:50:14;101227.25;;;5.27;100.00
81658;BME280;71057;51.436;6.768;2023-12-20T04:52:39;101227.97;;;5.21;100.00
81658;BME280;71057;51.436;6.768;2023-12-20T04:55:05;101232.59;;;5.12;100.00
81658;BME280;71057;51.436;6.768;2023-12-20T04:57:30;101238.59;;;5.14;100.00
81658;BME280;71057;51.436;6.768;2023-12-20T04:59:55;101227.38;;;5.10;100.00
81658;BME280;71057;51.436;6.768;2023-12-20T05:02:21;101221.94;;;5.04;100.00
81658;BME280;71057;51.436;6.768;2023-12-20T05:04:46;101221.50;;;4.92;100.00
81658;BME280;71057;51.436;6.768;2023-12-20T05:07:11;101229.53;;;4.92;100.00
81658;BME280;71057;51.436;6.768;2023-12-20T05:09:37;101228.63;;;4.85;100.00
81658;BME280;71057;51.436;6.768;2023-12-20T05:12:02;101230.59;;;4.83;100.00
81658;BME280;71057;51.436;6.768;2023-12-20T05:14:28;101233.78;;;4.86;100.00
81658;BME280;71057;51.436;6.768;2023-12-20T05:16:53;101232.88;;;4.94;100.00
81658;BME280;71057;51.436;6.768;2023-12-20T05:19:18;101226.63;;;5.02;100.00
81658;BME280;71057;51.436;6.768;2023-12-20T05:21:44;101228.13;;;5.04;100.00
81658;BME280;71057;51.436;6.768;2023-12-20T05:24:09;101225.91;;;5.08;100.00
81658;BME280;71057;51.436;6.768;2023-12-20T05:26:34;101241.44;;;5.12;100.00
81658;BME280;71057;51.436;6.768;2023-12-20T05:29:01;101220.75;;;5.06;100.00
81658;BME280;71057;51.436;6.768;2023-12-20T05:31:26;101207.50;;;5.13;100.00
81658;BME280;71057;51.436;6.768;2023-12-20T05:33:52;101201.94;;;5.14;100.00
81658;BME280;71057;51.436;6.768;2023-12-20T05:36:18;101216.34;;;5.13;100.00
81658;BME280;71057;51.436;6.768;2023-12-20T05:38:43;101218.13;;;5.21;100.00
81658;BME280;71057;51.436;6.768;2023-12-20T05:41:08;101208.25;;;5.22;100.00
81658;BME280;71057;51.436;6.768;2023-12-20T05:43:34;101199.56;;;5.20;100.00
81658;BME280;71057;51.436;6.768;2023-12-20T05:45:59;101200.38;;;5.20;100.00
81658;BME280;71057;51.436;6.768;2023-12-20T05:48:24;101207.16;;;5.31;100.00
81658;BME280;71057;51.436;6.768;2023-12-20T05:50:50;101200.31;;;5.28;100.00
81658;BME280;71057;51.436;6.768;2023-12-20T05:53:15;101196.81;;;5.28;100.00
81658;BME280;71057;51.436;6.768;2023-12-20T05:55:40;101197.28;;;5.31;100.00
81658;BME280;71057;51.436;6.768;2023-12-20T05:58:06;101196.16;;;5.26;100.00
81658;BME280;71057;51.436;6.768;2023-12-20T06:00:31;101208.53;;;5.27;100.00
81658;BME280;71057;51.436;6.768;2023-12-20T06:02:56;101212.50;;;5.31;100.00
81658;BME280;71057;51.436;6.768;2023-12-20T06:05:21;101219.16;;;5.35;100.00
81658;BME280;71057;51.436;6.768;2023-12-20T06:07:47;101215.66;;;5.34;100.00
81658;BME280;71057;51.436;6.768;2023-12-20T06:10:13;101223.13;;;5.39;100.00
81658;BME280;71057;51.436;6.768;2023-12-20T06:12:39;101220.28;;;5.40;100.00
81658;BME280;71057;51.436;6.768;2023-12-20T06:15:04;101222.59;;;5.43;100.00
81658;BME280;71057;51.436;6.768;2023-12-20T06:17:31;101216.75;;;5.40;100.00
81658;BME280;71057;51.436;6.768;2023-12-20T06:19:57;101213.53;;;5.44;100.00
81658;BME280;71057;51.436;6.768;2023-12-20T06:22:22;101213.72;;;5.43;100.00
81658;BME280;71057;51.436;6.768;2023-12-20T06:24:47;101224.69;;;5.48;100.00
81658;BME280;71057;51.436;6.768;2023-12-20T06:27:13;101226.28;;;5.42;100.00
81658;BME280;71057;51.436;6.768;2023-12-20T06:29:38;101222.59;;;5.43;100.00
81658;BME280;71057;51.436;6.768;2023-12-20T06:32:04;101222.69;;;5.50;100.00
81658;BME280;71057;51.436;6.768;2023-12-20T06:34:29;101223.34;;;5.52;100.00
81658;BME280;71057;51.436;6.768;2023-12-20T06:36:54;101225.25;;;5.58;100.00
81658;BME280;71057;51.436;6.768;2023-12-20T06:39:20;101220.28;;;5.55;100.00
81658;BME280;71057;51.436;6.768;2023-12-20T06:41:45;101208.56;;;5.56;100.00
81658;BME280;71057;51.436;6.768;2023-12-20T06:44:10;101210.88;;;5.59;100.00
81658;BME280;71057;51.436;6.768;2023-12-20T06:46:36;101219.63;;;5.68;100.00
81658;BME280;71057;51.436;6.768;2023-12-20T06:49:01;101216.97;;;5.68;100.00
81658;BME280;71057;51.436;6.768;2023-12-20T06:51:26;101222.59;;;5.73;100.00
81658;BME280;71057;51.436;6.768;2023-12-20T06:53:52;101224.06;;;5.76;100.00
81658;BME280;71057;51.436;6.768;2023-12-20T06:56:17;101224.56;;;5.79;100.00
81658;BME280;71057;51.436;6.768;2023-12-20T06:58:43;101219.00;;;5.81;100.00
81658;BME280;71057;51.436;6.768;2023-12-20T07:01:12;101208.22;;;5.89;100.00
81658;BME280;71057;51.436;6.768;2023-12-20T07:03:37;101221.59;;;5.89;100.00
81658;BME280;71057;51.436;6.768;2023-12-20T07:06:03;101213.28;;;5.84;100.00
81658;BME280;71057;51.436;6.768;2023-12-20T07:08:28;101210.88;;;5.89;100.00
81658;BME280;71057;51.436;6.768;2023-12-20T07:10:54;101226.81;;;5.90;100.00
81658;BME280;71057;51.436;6.768;2023-12-20T07:13:19;101214.59;;;5.88;100.00
81658;BME280;71057;51.436;6.768;2023-12-20T07:15:44;101197.78;;;5.94;100.00
81658;BME280;71057;51.436;6.768;2023-12-20T07:18:10;101196.47;;;5.90;100.00
81658;BME280;71057;51.436;6.768;2023-12-20T07:20:35;101197.78;;;5.94;100.00
81658;BME280;71057;51.436;6.768;2023-12-20T07:23:00;101201.47;;;5.93;100.00
81658;BME280;71057;51.436;6.768;2023-12-20T07:25:25;101185.50;;;5.99;100.00
81658;BME280;71057;51.436;6.768;2023-12-20T07:27:51;101202.03;;;6.03;100.00
81658;BME280;71057;51.436;6.768;2023-12-20T07:30:16;101212.94;;;6.01;100.00
81658;BME280;71057;51.436;6.768;2023-12-20T07:32:42;101221.81;;;6.02;100.00
81658;BME280;71057;51.436;6.768;2023-12-20T07:35:07;101213.22;;;6.07;100.00
81658;BME280;71057;51.436;6.768;2023-12-20T07:37:32;101216.06;;;6.05;100.00
81658;BME280;71057;51.436;6.768;2023-12-20T07:39:58;101229.28;;;6.07;100.00
81658;BME280;71057;51.436;6.768;2023-12-20T07:42:23;101210.34;;;6.08;100.00
81658;BME280;71057;51.436;6.768;2023-12-20T07:44:48;101209.88;;;6.05;100.00
81658;BME280;71057;51.436;6.768;2023-12-20T07:47:14;101213.03;;;6.08;100.00
81658;BME280;71057;51.436;6.768;2023-12-20T07:49:42;101214.94;;;6.14;100.00
81658;BME280;71057;51.436;6.768;2023-12-20T07:52:07;101207.09;;;6.13;100.00
81658;BME280;71057;51.436;6.768;2023-12-20T07:54:33;101206.72;;;6.16;100.00
81658;BME280;71057;51.436;6.768;2023-12-20T07:56:58;101229.44;;;6.20;100.00
81658;BME280;71057;51.436;6.768;2023-12-20T07:59:24;101214.84;;;6.22;100.00
81658;BME280;71057;51.436;6.768;2023-12-20T08:01:49;101211.97;;;6.24;100.00
81658;BME280;71057;51.436;6.768;2023-12-20T08:04:14;101211.81;;;6.25;100.00
81658;BME280;71057;51.436;6.768;2023-12-20T08:06:39;101209.75;;;6.27;100.00
81658;BME280;71057;51.436;6.768;2023-12-20T08:09:05;101206.06;;;6.28;100.00
81658;BME280;71057;51.436;6.768;2023-12-20T08:11:30;101204.00;;;6.30;100.00
81658;BME280;71057;51.436;6.768;2023-12-20T08:13:56;101203.38;;;6.28;100.00
81658;BME280;71057;51.436;6.768;2023-12-20T08:16:21;101204.75;;;6.24;100.00
81658;BME280;71057;51.436;6.768;2023-12-20T08:18:47;101202.06;;;6.24;100.00
81658;BME280;71057;51.436;6.768;2023-12-20T08:21:13;101207.81;;;6.21;100.00
81658;BME280;71057;51.436;6.768;2023-12-20T08:23:38;101212.63;;;6.26;100.00
81658;BME280;71057;51.436;6.768;2023-12-20T08:26:07;101205.13;;;6.21;100.00
81658;BME280;71057;51.436;6.768;2023-12-20T08:28:33;101195.00;;;6.17;100.00
81658;BME280;71057;51.436;6.768;2023-12-20T08:30:58;101206.25;;;6.27;100.00
81658;BME280;71057;51.436;6.768;2023-12-20T08:33:24;101218.00;;;6.26;100.00
81658;BME280;71057;51.436;6.768;2023-12-20T08:35:49;101228.53;;;6.27;100.00
81658;BME280;71057;51.436;6.768;2023-12-20T08:38:14;101239.69;;;6.31;100.00
81658;BME280;71057;51.436;6.768;2023-12-20T08:40:40;101228.72;;;6.26;100.00
81658;BME280;71057;51.436;6.768;2023-12-20T08:43:05;101227.59;;;6.20;100.00
81658;BME280;71057;51.436;6.768;2023-12-20T08:45:30;101264.38;;;6.26;100.00
81658;BME280;71057;51.436;6.768;2023-12-20T08:47:56;101226.19;;;6.24;100.00
81658;BME280;71057;51.436;6.768;2023-12-20T08:50:21;101224.53;;;6.23;100.00
81658;BME280;71057;51.436;6.768;2023-12-20T08:52:46;101214.47;;;6.25;100.00
81658;BME280;71057;51.436;6.768;2023-12-20T08:55:12;101219.56;;;6.20;100.00
81658;BME280;71057;51.436;6.768;2023-12-20T08:57:38;101226.47;;;6.29;100.00
81658;BME280;71057;51.436;6.768;2023-12-20T09:00:04;101218.88;;;6.33;100.00
81658;BME280;71057;51.436;6.768;2023-12-20T09:02:29;101209.66;;;6.36;100.00
81658;BME280;71057;51.436;6.768;2023-12-20T09:04:54;101211.31;;;6.37;100.00
81658;BME280;71057;51.436;6.768;2023-12-20T09:07:24;101215.94;;;6.28;100.00
81658;BME280;71057;51.436;6.768;2023-12-20T09:09:52;101215.84;;;6.21;100.00
81658;BME280;71057;51.436;6.768;2023-12-20T09:12:18;101214.94;;;6.29;100.00
81658;BME280;71057;51.436;6.768;2023-12-20T09:14:45;101203.75;;;6.25;100.00
81658;BME280;71057;51.436;6.768;2023-12-20T09:17:10;101211.81;;;6.25;100.00
81658;BME280;71057;51.436;6.768;2023-12-20T09:19:37;101215.84;;;6.21;100.00
81658;BME280;71057;51.436;6.768;2023-12-20T09:22:03;101223.72;;;6.23;100.00
81658;BME280;71057;51.436;6.768;2023-12-20T09:24:29;101208.47;;;6.23;100.00
81658;BME280;71057;51.436;6.768;2023-12-20T09:26:54;101199.78;;;6.21;100.00
81658;BME280;71057;51.436;6.768;2023-12-20T09:29:20;101196.41;;;6.34;100.00
81658;BME280;71057;51.436;6.768;2023-12-20T09:31:46;101201.53;;;6.29;100.00
81658;BME280;71057;51.436;6.768;2023-12-20T09:34:11;101178.47;;;6.35;100.00
81658;BME280;71057;51.436;6.768;2023-12-20T09:36:37;101203.63;;;6.34;100.00
81658;BME280;71057;51.436;6.768;2023-12-20T09:39:05;101199.03;;;6.27;100.00
81658;BME280;71057;51.436;6.768;2023-12-20T09:41:36;101189.50;;;6.25;100.00
81658;BME280;71057;51.436;6.768;2023-12-20T09:44:03;101196.72;;;6.24;100.00
81658;BME280;71057;51.436;6.768;2023-12-20T09:46:28;101212.44;;;6.27;100.00
81658;BME280;71057;51.436;6.768;2023-12-20T09:48:59;101227.13;;;6.32;100.00
81658;BME280;71057;51.436;6.768;2023-12-20T09:51:27;101207.91;;;6.28;100.00
81658;BME280;71057;51.436;6.768;2023-12-20T09:53:54;101212.69;;;6.33;100.00
81658;BME280;71057;51.436;6.768;2023-12-20T09:56:20;101212.34;;;6.36;100.00
81658;BME280;71057;51.436;6.768;2023-12-20T09:58:46;101218.53;;;6.36;100.00
81658;BME280;71057;51.436;6.768;2023-12-20T10:01:12;101221.72;;;6.46;100.00
81658;BME280;71057;51.436;6.768;2023-12-20T10:03:39;101204.34;;;6.42;100.00
81658;BME280;71057;51.436;6.768;2023-12-20T10:06:05;101201.22;;;6.39;100.00
81658;BME280;71057;51.436;6.768;2023-12-20T10:08:31;101202.97;;;6.46;100.00
81658;BME280;71057;51.436;6.768;2023-12-20T10:10:57;101206.28;;;6.48;100.00
81658;BME280;71057;51.436;6.768;2023-12-20T10:13:27;101198.63;;;6.45;100.00
81658;BME280;71057;51.436;6.768;2023-12-20T10:15:55;101202.66;;;6.56;100.00
81658;BME280;71057;51.436;6.768;2023-12-20T10:18:21;101198.34;;;6.62;100.00
81658;BME280;71057;51.436;6.768;2023-12-20T10:20:46;101196.91;;;6.59;100.00
81658;BME280;71057;51.436;6.768;2023-12-20T10:23:12;101191.97;;;6.63;100.00
81658;BME280;71057;51.436;6.768;2023-12-20T10:25:39;101174.88;;;6.64;100.00
81658;BME280;71057;51.436;6.768;2023-12-20T10:28:15;101186.16;;;6.59;100.00
81658;BME280;71057;51.436;6.768;2023-12-20T10:30:46;101178.56;;;6.63;100.00
81658;BME280;71057;51.436;6.768;2023-12-20T10:33:11;101167.28;;;6.67;100.00
81658;BME280;71057;51.436;6.768;2023-12-20T10:35:38;101167.28;;;6.67;100.00
81658;BME280;71057;51.436;6.768;2023-12-20T10:38:04;101179.09;;;6.73;100.00
81658;BME280;71057;51.436;6.768;2023-12-20T10:40:30;101178.25;;;6.72;100.00
81658;BME280;71057;51.436;6.768;2023-12-20T10:42:56;101176.03;;;6.76;100.00
81658;BME280;71057;51.436;6.768;2023-12-20T10:45:23;101185.53;;;6.78;100.00
81658;BME280;71057;51.436;6.768;2023-12-20T10:47:49;101170.47;;;6.77;100.00
81658;BME280;71057;51.436;6.768;2023-12-20T10:50:15;101175.19;;;6.75;100.00
81658;BME280;71057;51.436;6.768;2023-12-20T10:52:41;101157.31;;;6.82;100.00
81658;BME280;71057;51.436;6.768;2023-12-20T10:55:07;101164.34;;;6.83;100.00
81658;BME280;71057;51.436;6.768;2023-12-20T10:57:35;101171.56;;;6.83;100.00
81658;BME280;71057;51.436;6.768;2023-12-20T11:00:02;101171.38;;;6.84;100.00
81658;BME280;71057;51.436;6.768;2023-12-20T11:02:39;101179.50;;;6.98;100.00
81658;BME280;71057;51.436;6.768;2023-12-20T11:08:08;101174.91;;;6.92;100.00
81658;BME280;71057;51.436;6.768;2023-12-20T11:10:49;101171.22;;;6.93;100.00
81658;BME280;71057;51.436;6.768;2023-12-20T11:13:20;101166.00;;;6.84;100.00
81658;BME280;71057;51.436;6.768;2023-12-20T11:15:47;101180.66;;;6.88;100.00
81658;BME280;71057;51.436;6.768;2023-12-20T11:18:12;101169.50;;;6.85;100.00
81658;BME280;71057;51.436;6.768;2023-12-20T11:20:40;101163.19;;;6.93;100.00
81658;BME280;71057;51.436;6.768;2023-12-20T11:23:06;101159.34;;;7.02;100.00
81658;BME280;71057;51.436;6.768;2023-12-20T11:26:03;101142.84;;;7.05;100.00
81658;BME280;71057;51.436;6.768;2023-12-20T11:28:29;101146.56;;;7.10;100.00
81658;BME280;71057;51.436;6.768;2023-12-20T11:30:58;101149.47;;;7.09;100.00
81658;BME280;71057;51.436;6.768;2023-12-20T11:33:27;101142.44;;;7.08;100.00
81658;BME280;71057;51.436;6.768;2023-12-20T11:36:01;101152.00;;;7.17;100.00
81658;BME280;71057;51.436;6.768;2023-12-20T11:38:27;101134.03;;;7.18;100.00
81658;BME280;71057;51.436;6.768;2023-12-20T11:40:54;101149.94;;;7.19;100.00
81658;BME280;71057;51.436;6.768;2023-12-20T11:43:36;101136.53;;;7.19;100.00
81658;BME280;71057;51.436;6.768;2023-12-20T11:46:07;101139.13;;;7.06;100.00
81658;BME280;71057;51.436;6.768;2023-12-20T11:48:35;101124.00;;;6.98;100.00
81658;BME280;71057;51.436;6.768;2023-12-20T11:51:01;101138.22;;;6.92;100.00
81658;BME280;71057;51.436;6.768;2023-12-20T11:53:26;101131.97;;;6.92;100.00
81658;BME280;71057;51.436;6.768;2023-12-20T11:55:51;101131.56;;;6.88;100.00
81658;BME280;71057;51.436;6.768;2023-12-20T11:58:17;101118.88;;;6.75;100.00
81658;BME280;71057;51.436;6.768;2023-12-20T12:00:43;101131.06;;;6.78;100.00
81658;BME280;71057;51.436;6.768;2023-12-20T12:03:09;101121.16;;;6.78;100.00
81658;BME280;71057;51.436;6.768;2023-12-20T12:05:34;101121.59;;;6.82;100.00
81658;BME280;71057;51.436;6.768;2023-12-20T12:08:00;101119.16;;;6.87;100.00
81658;BME280;71057;51.436;6.768;2023-12-20T12:10:26;101124.81;;;6.99;100.00
81658;BME280;71057;51.436;6.768;2023-12-20T12:12:51;101129.50;;;6.90;100.00
81658;BME280;71057;51.436;6.768;2023-12-20T12:15:17;101117.94;;;6.90;100.00
81658;BME280;71057;51.436;6.768;2023-12-20T12:17:42;101100.59;;;6.85;100.00
81658;BME280;71057;51.436;6.768;2023-12-20T12:20:08;101097.31;;;6.90;100.00
81658;BME280;71057;51.436;6.768;2023-12-20T12:22:35;101108.09;;;6.97;100.00
81658;BME280;71057;51.436;6.768;2023-12-20T12:25:12;101103.97;;;7.01;100.00
81658;BME280;71057;51.436;6.768;2023-12-20T12:27:40;101108.56;;;7.07;100.00
81658;BME280;71057;51.436;6.768;2023-12-20T12:30:06;101107.81;;;7.13;100.00
81658;BME280;71057;51.436;6.768;2023-12-20T12:32:35;101115.16;;;7.04;100.00
81658;BME280;71057;51.436;6.768;2023-12-20T12:35:03;101109.84;;;7.11;100.00
81658;BME280;71057;51.436;6.768;2023-12-20T12:37:28;101113.75;;;7.08;100.00
81658;BME280;71057;51.436;6.768;2023-12-20T12:39:54;101106.16;;;7.12;100.00
81658;BME280;71057;51.436;6.768;2023-12-20T12:42:20;101098.63;;;7.01;100.00
81658;BME280;71057;51.436;6.768;2023-12-20T12:44:46;101087.09;;;7.07;100.00
81658;BME280;71057;51.436;6.768;2023-12-20T12:47:11;101086.63;;;6.97;100.00